sensor_id;sensor_type;location;lat;lon;timestamp;temperature;humidity
7648;DHT22;3866;48.020;11.720;2023-05-10T00:01:25;12.30;99.90
7648;DHT22;3866;48.020;11.720;2023-05-10T00:03:53;12.30;99.90
7648;DHT22;3866;48.020;11.720;2023-05-10T00:06:20;12.30;99.90
7648;DHT22;3866;48.020;11.720;2023-05-10T00:08:47;12.20;99.90
7648;DHT22;3866;48.020;11.720;2023-05-10T00:11:14;12.30;99.90
7648;DHT22;3866;48.020;11.720;2023-05-10T00:13:41;12.30;99.90
7648;DHT22;3866;48.020;11.720;2023-05-10T00:16:07;12.20;99.90
7648;DHT22;3866;48.020;11.720;2023-05-10T00:18:34;12.30;99.90
7648;DHT22;3866;48.020;11.720;2023-05-10T00:21:03;12.30;99.90
7648;DHT22;3866;48.020;11.720;2023-05-10T00:23:30;12.20;99.90
7648;DHT22;3866;48.020;11.720;2023-05-10T00:25:57;12.30;99.90
7648;DHT22;3866;48.020;11.720;2023-05-10T00:28:24;12.20;99.90
7648;DHT22;3866;48.020;11.720;2023-05-10T00:30:51;12.30;99.90
7648;DHT22;3866;48.020;11.720;2023-05-10T00:33:17;12.30;99.90
7648;DHT22;3866;48.020;11.720;2023-05-10T00:35:44;12.30;99.90
7648;DHT22;3866;48.020;11.720;2023-05-10T00:38:12;12.20;99.90
7648;DHT22;3866;48.020;11.720;2023-05-10T00:40:39;12.20;99.90
7648;DHT22;3866;48.020;11.720;2023-05-10T00:43:06;12.30;99.90
7648;DHT22;3866;48.020;11.720;2023-05-10T00:45:34;12.30;99.90
7648;DHT22;3866;48.020;11.720;2023-05-10T00:48:02;12.20;99.90
7648;DHT22;3866;48.020;11.720;2023-05-10T00:50:30;12.20;99.90
7648;DHT22;3866;48.020;11.720;2023-05-10T00:52:58;12.30;99.90
7648;DHT22;3866;48.020;11.720;2023-05-10T00:55:27;12.30;99.90
7648;DHT22;3866;48.020;11.720;2023-05-10T00:57:54;12.30;99.90
7648;DHT22;3866;48.020;11.720;2023-05-10T01:00:21;12.30;99.90
7648;DHT22;3866;48.020;11.720;2023-05-10T01:02:48;12.30;99.90
7648;DHT22;3866;48.020;11.720;2023-05-10T01:05:15;12.30;99.90
7648;DHT22;3866;48.020;11.720;2023-05-10T01:07:42;12.30;99.90
7648;DHT22;3866;48.020;11.720;2023-05-10T01:10:09;12.30;99.90
7648;DHT22;3866;48.020;11.720;2023-05-10T01:12:40;12.20;99.90
7648;DHT22;3866;48.020;11.720;2023-05-10T01:15:08;12.20;99.90
7648;DHT22;3866;48.020;11.720;2023-05-10T01:17:38;12.20;99.90
7648;DHT22;3866;48.020;11.720;2023-05-10T01:20:07;12.20;99.90
7648;DHT22;3866;48.020;11.720;2023-05-10T01:23:03;12.20;99.90
7648;DHT22;3866;48.020;11.720;2023-05-10T01:25:49;12.20;99.90
7648;DHT22;3866;48.020;11.720;2023-05-10T01:28:34;12.20;99.90
7648;DHT22;3866;48.020;11.720;2023-05-10T01:31:16;12.10;99.90
7648;DHT22;3866;48.020;11.720;2023-05-10T01:33:52;12.10;99.90
7648;DHT22;3866;48.020;11.720;2023-05-10T01:36:25;12.20;99.90
7648;DHT22;3866;48.020;11.720;2023-05-10T01:38:58;12.20;99.90
7648;DHT22;3866;48.020;11.720;2023-05-10T01:41:29;12.10;99.90
7648;DHT22;3866;48.020;11.720;2023-05-10T01:44:02;12.20;99.90
7648;DHT22;3866;48.020;11.720;2023-05-10T01:46:35;12.20;99.90
7648;DHT22;3866;48.020;11.720;2023-05-10T01:49:08;12.10;99.90
7648;DHT22;3866;48.020;11.720;2023-05-10T01:51:41;12.00;99.90
7648;DHT22;3866;48.020;11.720;2023-05-10T01:54:09;12.10;99.90
7648;DHT22;3866;48.020;11.720;2023-05-10T01:56:37;12.10;99.90
7648;DHT22;3866;48.020;11.720;2023-05-10T01:59:08;12.10;99.90
7648;DHT22;3866;48.020;11.720;2023-05-10T02:01:38;12.10;99.90
7648;DHT22;3866;48.020;11.720;2023-05-10T02:04:08;12.10;99.90
7648;DHT22;3866;48.020;11.720;2023-05-10T02:06:36;12.10;99.90
7648;DHT22;3866;48.020;11.720;2023-05-10T02:09:05;12.10;99.90
7648;DHT22;3866;48.020;11.720;2023-05-10T02:11:33;12.20;99.90
7648;DHT22;3866;48.020;11.720;2023-05-10T02:14:00;12.20;99.90
7648;DHT22;3866;48.020;11.720;2023-05-10T02:16:28;12.20;99.90
7648;DHT22;3866;48.020;11.720;2023-05-10T02:18:58;12.20;99.90
7648;DHT22;3866;48.020;11.720;2023-05-10T02:21:28;12.20;99.90
7648;DHT22;3866;48.020;11.720;2023-05-10T02:23:57;12.00;99.90
7648;DHT22;3866;48.020;11.720;2023-05-10T02:26:25;12.00;99.90
7648;DHT22;3866;48.020;11.720;2023-05-10T02:28:53;12.10;99.90
7648;DHT22;3866;48.020;11.720;2023-05-10T02:31:21;12.00;99.90
7648;DHT22;3866;48.020;11.720;2023-05-10T02:33:50;12.10;99.90
7648;DHT22;3866;48.020;11.720;2023-05-10T02:36:18;12.10;99.90
7648;DHT22;3866;48.020;11.720;2023-05-10T02:38:49;12.10;99.90
7648;DHT22;3866;48.020;11.720;2023-05-10T02:41:19;12.10;99.90
7648;DHT22;3866;48.020;11.720;2023-05-10T02:43:47;12.00;99.90
7648;DHT22;3866;48.020;11.720;2023-05-10T02:46:15;12.00;99.90
7648;DHT22;3866;48.020;11.720;2023-05-10T02:48:42;12.10;99.90
7648;DHT22;3866;48.020;11.720;2023-05-10T02:51:12;12.00;99.90
7648;DHT22;3866;48.020;11.720;2023-05-10T02:53:44;12.00;99.90
7648;DHT22;3866;48.020;11.720;2023-05-10T02:56:17;12.00;99.90
7648;DHT22;3866;48.020;11.720;2023-05-10T02:58:46;12.00;99.90
7648;DHT22;3866;48.020;11.720;2023-05-10T03:01:13;11.90;99.90
7648;DHT22;3866;48.020;11.720;2023-05-10T03:03:41;11.90;99.90
7648;DHT22;3866;48.020;11.720;2023-05-10T03:06:08;11.90;99.90
7648;DHT22;3866;48.020;11.720;2023-05-10T03:08:35;11.90;99.90
7648;DHT22;3866;48.020;11.720;2023-05-10T03:11:22;11.90;99.90
7648;DHT22;3866;48.020;11.720;2023-05-10T03:14:05;11.90;99.90
7648;DHT22;3866;48.020;11.720;2023-05-10T03:16:45;11.90;99.90
7648;DHT22;3866;48.020;11.720;2023-05-10T03:19:17;11.90;99.90
7648;DHT22;3866;48.020;11.720;2023-05-10T03:21:49;11.90;99.90
7648;DHT22;3866;48.020;11.720;2023-05-10T03:24:21;11.90;99.90
7648;DHT22;3866;48.020;11.720;2023-05-10T03:26:52;11.90;99.90
7648;DHT22;3866;48.020;11.720;2023-05-10T03:29:22;12.00;99.90
7648;DHT22;3866;48.020;11.720;2023-05-10T03:31:50;11.90;99.90
7648;DHT22;3866;48.020;11.720;2023-05-10T03:34:17;11.90;99.90
7648;DHT22;3866;48.020;11.720;2023-05-10T03:36:49;11.90;99.90
7648;DHT22;3866;48.020;11.720;2023-05-10T03:39:16;11.90;99.90
7648;DHT22;3866;48.020;11.720;2023-05-10T03:41:43;11.90;99.90
7648;DHT22;3866;48.020;11.720;2023-05-10T03:44:11;11.90;99.90
7648;DHT22;3866;48.020;11.720;2023-05-10T03:46:38;11.80;99.90
7648;DHT22;3866;48.020;11.720;2023-05-10T03:49:05;11.80;99.90
7648;DHT22;3866;48.020;11.720;2023-05-10T03:51:32;11.80;99.90
7648;DHT22;3866;48.020;11.720;2023-05-10T03:53:59;11.80;99.90
7648;DHT22;3866;48.020;11.720;2023-05-10T03:56:26;11.80;99.90
7648;DHT22;3866;48.020;11.720;2023-05-10T03:58:52;11.80;99.90
7648;DHT22;3866;48.020;11.720;2023-05-10T04:01:23;11.80;99.90
7648;DHT22;3866;48.020;11.720;2023-05-10T04:03:50;11.70;99.90
7648;DHT22;3866;48.020;11.720;2023-05-10T04:06:17;11.70;99.90
7648;DHT22;3866;48.020;11.720;2023-05-10T04:08:43;11.70;99.90
7648;DHT22;3866;48.020;11.720;2023-05-10T04:11:11;11.70;99.90
7648;DHT22;3866;48.020;11.720;2023-05-10T04:13:39;11.80;99.90
7648;DHT22;3866;48.020;11.720;2023-05-10T04:16:06;11.70;99.90
7648;DHT22;3866;48.020;11.720;2023-05-10T04:18:35;11.70;99.90
7648;DHT22;3866;48.020;11.720;2023-05-10T04:21:01;11.70;99.90
7648;DHT22;3866;48.020;11.720;2023-05-10T04:23:28;11.70;99.90
7648;DHT22;3866;48.020;11.720;2023-05-10T04:25:59;11.80;99.90
7648;DHT22;3866;48.020;11.720;2023-05-10T04:28:27;11.70;99.90
7648;DHT22;3866;48.020;11.720;2023-05-10T04:31:00;11.70;99.90
7648;DHT22;3866;48.020;11.720;2023-05-10T04:33:27;11.70;99.90
7648;DHT22;3866;48.020;11.720;2023-05-10T04:35:56;11.70;99.90
7648;DHT22;3866;48.020;11.720;2023-05-10T04:38:23;11.70;99.90
7648;DHT22;3866;48.020;11.720;2023-05-10T04:40:50;11.70;99.90
7648;DHT22;3866;48.020;11.720;2023-05-10T04:43:17;11.70;99.90
7648;DHT22;3866;48.020;11.720;2023-05-10T04:45:44;11.70;99.90
7648;DHT22;3866;48.020;11.720;2023-05-10T04:48:11;11.70;99.90
7648;DHT22;3866;48.020;11.720;2023-05-10T04:50:38;11.70;99.90
7648;DHT22;3866;48.020;11.720;2023-05-10T04:53:07;11.70;99.90
7648;DHT22;3866;48.020;11.720;2023-05-10T04:55:34;11.70;99.90
7648;DHT22;3866;48.020;11.720;2023-05-10T04:58:01;11.70;99.90
7648;DHT22;3866;48.020;11.720;2023-05-10T05:00:28;11.70;99.90
7648;DHT22;3866;48.020;11.720;2023-05-10T05:02:55;11.70;99.90
7648;DHT22;3866;48.020;11.720;2023-05-10T05:05:22;11.60;99.90
7648;DHT22;3866;48.020;11.720;2023-05-10T05:07:48;11.70;99.90
7648;DHT22;3866;48.020;11.720;2023-05-10T05:10:17;11.70;99.90
7648;DHT22;3866;48.020;11.720;2023-05-10T05:12:45;11.60;99.90
7648;DHT22;3866;48.020;11.720;2023-05-10T05:15:11;11.60;99.90
7648;DHT22;3866;48.020;11.720;2023-05-10T05:17:38;11.60;99.90
7648;DHT22;3866;48.020;11.720;2023-05-10T05:20:06;11.60;99.90
7648;DHT22;3866;48.020;11.720;2023-05-10T05:22:35;11.70;99.90
7648;DHT22;3866;48.020;11.720;2023-05-10T05:25:02;11.60;99.90
7648;DHT22;3866;48.020;11.720;2023-05-10T05:27:31;11.60;99.90
7648;DHT22;3866;48.020;11.720;2023-05-10T05:29:58;11.50;99.90
7648;DHT22;3866;48.020;11.720;2023-05-10T05:32:25;11.50;99.90
7648;DHT22;3866;48.020;11.720;2023-05-10T05:34:52;11.50;99.90
7648;DHT22;3866;48.020;11.720;2023-05-10T05:37:20;11.50;99.90
7648;DHT22;3866;48.020;11.720;2023-05-10T05:39:48;11.40;99.90
7648;DHT22;3866;48.020;11.720;2023-05-10T05:42:15;11.40;99.90
7648;DHT22;3866;48.020;11.720;2023-05-10T05:44:45;11.40;99.90
7648;DHT22;3866;48.020;11.720;2023-05-10T05:47:12;11.40;99.90
7648;DHT22;3866;48.020;11.720;2023-05-10T05:49:39;11.40;99.90
7648;DHT22;3866;48.020;11.720;2023-05-10T05:52:05;11.30;99.90
7648;DHT22;3866;48.020;11.720;2023-05-10T05:54:32;11.30;99.90
7648;DHT22;3866;48.020;11.720;2023-05-10T05:57:00;11.30;99.90
7648;DHT22;3866;48.020;11.720;2023-05-10T05:59:27;11.40;99.90
7648;DHT22;3866;48.020;11.720;2023-05-10T06:01:55;11.40;99.90
7648;DHT22;3866;48.020;11.720;2023-05-10T06:04:22;11.40;99.90
7648;DHT22;3866;48.020;11.720;2023-05-10T06:06:49;11.20;99.90
7648;DHT22;3866;48.020;11.720;2023-05-10T06:09:17;11.10;99.90
7648;DHT22;3866;48.020;11.720;2023-05-10T06:11:44;10.90;99.90
7648;DHT22;3866;48.020;11.720;2023-05-10T06:14:11;10.90;99.90
7648;DHT22;3866;48.020;11.720;2023-05-10T06:16:38;10.80;99.90
7648;DHT22;3866;48.020;11.720;2023-05-10T06:19:06;10.90;99.90
7648;DHT22;3866;48.020;11.720;2023-05-10T06:21:33;10.80;99.90
7648;DHT22;3866;48.020;11.720;2023-05-10T06:24:00;10.80;99.90
7648;DHT22;3866;48.020;11.720;2023-05-10T06:26:26;10.80;99.90
7648;DHT22;3866;48.020;11.720;2023-05-10T06:28:53;10.70;99.90
7648;DHT22;3866;48.020;11.720;2023-05-10T06:31:20;10.70;99.90
7648;DHT22;3866;48.020;11.720;2023-05-10T06:33:47;10.70;99.90
7648;DHT22;3866;48.020;11.720;2023-05-10T06:36:15;10.70;99.90
7648;DHT22;3866;48.020;11.720;2023-05-10T06:38:42;10.80;99.90
7648;DHT22;3866;48.020;11.720;2023-05-10T06:41:09;10.70;99.90
7648;DHT22;3866;48.020;11.720;2023-05-10T06:43:36;10.90;99.90
7648;DHT22;3866;48.020;11.720;2023-05-10T06:46:05;10.90;99.90
7648;DHT22;3866;48.020;11.720;2023-05-10T06:48:33;10.90;99.90
7648;DHT22;3866;48.020;11.720;2023-05-10T06:51:00;11.00;99.90
7648;DHT22;3866;48.020;11.720;2023-05-10T06:53:28;11.00;99.90
7648;DHT22;3866;48.020;11.720;2023-05-10T06:55:55;11.00;99.90
7648;DHT22;3866;48.020;11.720;2023-05-10T06:58:22;11.10;99.90
7648;DHT22;3866;48.020;11.720;2023-05-10T07:00:49;11.10;99.90
7648;DHT22;3866;48.020;11.720;2023-05-10T07:03:16;11.10;99.90
7648;DHT22;3866;48.020;11.720;2023-05-10T07:05:43;11.30;99.90
7648;DHT22;3866;48.020;11.720;2023-05-10T07:08:09;11.30;99.90
7648;DHT22;3866;48.020;11.720;2023-05-10T07:10:38;11.50;99.90
7648;DHT22;3866;48.020;11.720;2023-05-10T07:13:04;11.80;99.90
7648;DHT22;3866;48.020;11.720;2023-05-10T07:15:31;12.00;99.90
7648;DHT22;3866;48.020;11.720;2023-05-10T07:17:59;12.20;99.90
7648;DHT22;3866;48.020;11.720;2023-05-10T07:20:25;12.20;99.90
7648;DHT22;3866;48.020;11.720;2023-05-10T07:22:52;12.30;99.90
7648;DHT22;3866;48.020;11.720;2023-05-10T07:25:19;12.70;99.90
7648;DHT22;3866;48.020;11.720;2023-05-10T07:27:47;12.70;99.90
7648;DHT22;3866;48.020;11.720;2023-05-10T07:30:14;12.70;99.90
7648;DHT22;3866;48.020;11.720;2023-05-10T07:32:41;12.90;99.90
7648;DHT22;3866;48.020;11.720;2023-05-10T07:35:08;13.00;99.90
7648;DHT22;3866;48.020;11.720;2023-05-10T07:37:36;12.80;99.90
7648;DHT22;3866;48.020;11.720;2023-05-10T07:40:04;12.80;99.90
7648;DHT22;3866;48.020;11.720;2023-05-10T07:42:31;12.90;99.90
7648;DHT22;3866;48.020;11.720;2023-05-10T07:45:00;13.10;99.90
7648;DHT22;3866;48.020;11.720;2023-05-10T07:47:26;13.10;99.90
7648;DHT22;3866;48.020;11.720;2023-05-10T07:49:53;13.00;99.90
7648;DHT22;3866;48.020;11.720;2023-05-10T07:52:20;13.10;99.90
7648;DHT22;3866;48.020;11.720;2023-05-10T07:54:47;12.90;99.90
7648;DHT22;3866;48.020;11.720;2023-05-10T07:57:14;13.00;99.90
7648;DHT22;3866;48.020;11.720;2023-05-10T07:59:43;13.30;99.90
7648;DHT22;3866;48.020;11.720;2023-05-10T08:02:11;13.70;99.90
7648;DHT22;3866;48.020;11.720;2023-05-10T08:04:38;13.80;99.90
7648;DHT22;3866;48.020;11.720;2023-05-10T08:07:05;13.80;99.90
7648;DHT22;3866;48.020;11.720;2023-05-10T08:09:32;13.50;99.90
7648;DHT22;3866;48.020;11.720;2023-05-10T08:11:59;13.80;99.90
7648;DHT22;3866;48.020;11.720;2023-05-10T08:14:27;14.30;99.90
7648;DHT22;3866;48.020;11.720;2023-05-10T08:16:54;14.40;99.90
7648;DHT22;3866;48.020;11.720;2023-05-10T08:19:23;14.50;99.90
7648;DHT22;3866;48.020;11.720;2023-05-10T08:21:49;15.20;99.90
7648;DHT22;3866;48.020;11.720;2023-05-10T08:24:16;15.10;99.90
7648;DHT22;3866;48.020;11.720;2023-05-10T08:26:43;15.30;99.90
7648;DHT22;3866;48.020;11.720;2023-05-10T08:29:10;14.90;99.90
7648;DHT22;3866;48.020;11.720;2023-05-10T08:31:37;14.70;99.90
7648;DHT22;3866;48.020;11.720;2023-05-10T08:34:03;14.60;99.90
7648;DHT22;3866;48.020;11.720;2023-05-10T08:36:32;14.30;99.90
7648;DHT22;3866;48.020;11.720;2023-05-10T08:38:59;14.00;99.90
7648;DHT22;3866;48.020;11.720;2023-05-10T08:41:25;13.90;99.90
7648;DHT22;3866;48.020;11.720;2023-05-10T08:43:53;13.80;99.90
7648;DHT22;3866;48.020;11.720;2023-05-10T08:46:21;14.10;99.90
7648;DHT22;3866;48.020;11.720;2023-05-10T08:48:49;14.60;99.90
7648;DHT22;3866;48.020;11.720;2023-05-10T08:51:19;15.40;99.90
7648;DHT22;3866;48.020;11.720;2023-05-10T08:53:48;15.20;99.90
7648;DHT22;3866;48.020;11.720;2023-05-10T08:56:15;15.10;99.90
7648;DHT22;3866;48.020;11.720;2023-05-10T08:58:43;15.20;99.90
7648;DHT22;3866;48.020;11.720;2023-05-10T09:01:11;14.90;99.90
7648;DHT22;3866;48.020;11.720;2023-05-10T09:03:39;14.70;99.90
7648;DHT22;3866;48.020;11.720;2023-05-10T09:06:06;14.70;99.90
7648;DHT22;3866;48.020;11.720;2023-05-10T09:08:33;14.60;99.90
7648;DHT22;3866;48.020;11.720;2023-05-10T09:11:02;14.50;99.90
7648;DHT22;3866;48.020;11.720;2023-05-10T09:13:29;14.40;99.90
7648;DHT22;3866;48.020;11.720;2023-05-10T09:15:57;14.20;99.90
7648;DHT22;3866;48.020;11.720;2023-05-10T09:18:24;14.10;99.90
7648;DHT22;3866;48.020;11.720;2023-05-10T09:20:51;14.00;99.90
7648;DHT22;3866;48.020;11.720;2023-05-10T09:23:18;13.90;99.90
7648;DHT22;3866;48.020;11.720;2023-05-10T09:25:45;13.90;99.90
7648;DHT22;3866;48.020;11.720;2023-05-10T09:28:13;14.10;99.90
7648;DHT22;3866;48.020;11.720;2023-05-10T09:30:40;14.10;99.90
7648;DHT22;3866;48.020;11.720;2023-05-10T09:33:08;14.00;99.90
7648;DHT22;3866;48.020;11.720;2023-05-10T09:35:35;13.90;99.90
7648;DHT22;3866;48.020;11.720;2023-05-10T09:38:04;13.50;99.90
7648;DHT22;3866;48.020;11.720;2023-05-10T09:40:31;13.20;99.90
7648;DHT22;3866;48.020;11.720;2023-05-10T09:43:00;13.10;99.90
7648;DHT22;3866;48.020;11.720;2023-05-10T09:45:30;13.10;99.90
7648;DHT22;3866;48.020;11.720;2023-05-10T09:47:57;13.10;99.90
7648;DHT22;3866;48.020;11.720;2023-05-10T09:50:26;13.20;99.90
7648;DHT22;3866;48.020;11.720;2023-05-10T09:52:54;13.30;99.90
7648;DHT22;3866;48.020;11.720;2023-05-10T09:55:24;13.30;99.90
7648;DHT22;3866;48.020;11.720;2023-05-10T09:57:59;13.40;99.90
7648;DHT22;3866;48.020;11.720;2023-05-10T10:00:28;13.40;99.90
7648;DHT22;3866;48.020;11.720;2023-05-10T10:03:01;13.30;99.90
7648;DHT22;3866;48.020;11.720;2023-05-10T10:05:28;13.50;99.90
7648;DHT22;3866;48.020;11.720;2023-05-10T10:07:56;13.60;99.90
7648;DHT22;3866;48.020;11.720;2023-05-10T10:10:24;13.50;99.90
7648;DHT22;3866;48.020;11.720;2023-05-10T10:12:51;13.40;99.90
7648;DHT22;3866;48.020;11.720;2023-05-10T10:15:18;13.70;99.90
7648;DHT22;3866;48.020;11.720;2023-05-10T10:17:46;13.60;99.90
7648;DHT22;3866;48.020;11.720;2023-05-10T10:20:15;13.90;99.90
7648;DHT22;3866;48.020;11.720;2023-05-10T10:22:42;14.00;99.90
7648;DHT22;3866;48.020;11.720;2023-05-10T10:25:11;14.00;99.90
7648;DHT22;3866;48.020;11.720;2023-05-10T10:27:45;14.20;99.90
7648;DHT22;3866;48.020;11.720;2023-05-10T10:30:21;14.40;99.90
7648;DHT22;3866;48.020;11.720;2023-05-10T10:36:03;14.40;99.90
7648;DHT22;3866;48.020;11.720;2023-05-10T10:38:38;14.40;99.90
7648;DHT22;3866;48.020;11.720;2023-05-10T10:41:32;14.50;99.90
7648;DHT22;3866;48.020;11.720;2023-05-10T10:44:24;14.40;99.90
7648;DHT22;3866;48.020;11.720;2023-05-10T10:47:08;14.60;99.90
7648;DHT22;3866;48.020;11.720;2023-05-10T10:49:44;14.80;99.90
7648;DHT22;3866;48.020;11.720;2023-05-10T10:52:24;14.80;99.90
7648;DHT22;3866;48.020;11.720;2023-05-10T10:54:58;14.90;99.90
7648;DHT22;3866;48.020;11.720;2023-05-10T10:57:25;14.90;99.90
7648;DHT22;3866;48.020;11.720;2023-05-10T11:00:27;14.80;99.90
7648;DHT22;3866;48.020;11.720;2023-05-10T11:02:56;14.80;99.90
7648;DHT22;3866;48.020;11.720;2023-05-10T11:05:42;14.70;99.90
7648;DHT22;3866;48.020;11.720;2023-05-10T11:08:13;15.00;99.90
7648;DHT22;3866;48.020;11.720;2023-05-10T11:10:48;15.10;99.90
7648;DHT22;3866;48.020;11.720;2023-05-10T11:13:27;15.20;99.90
7648;DHT22;3866;48.020;11.720;2023-05-10T11:15:55;15.30;99.90
7648;DHT22;3866;48.020;11.720;2023-05-10T11:18:25;15.30;99.90
7648;DHT22;3866;48.020;11.720;2023-05-10T11:20:56;15.20;99.90
7648;DHT22;3866;48.020;11.720;2023-05-10T11:23:30;15.10;99.90
7648;DHT22;3866;48.020;11.720;2023-05-10T11:25:57;15.20;99.90
7648;DHT22;3866;48.020;11.720;2023-05-10T11:28:24;15.20;99.90
7648;DHT22;3866;48.020;11.720;2023-05-10T11:30:52;14.90;99.90
7648;DHT22;3866;48.020;11.720;2023-05-10T11:33:19;14.70;99.90
7648;DHT22;3866;48.020;11.720;2023-05-10T11:35:46;14.60;99.90
7648;DHT22;3866;48.020;11.720;2023-05-10T11:38:13;14.50;99.90
7648;DHT22;3866;48.020;11.720;2023-05-10T11:40:42;14.40;99.90
7648;DHT22;3866;48.020;11.720;2023-05-10T11:43:09;13.80;99.90
7648;DHT22;3866;48.020;11.720;2023-05-10T11:45:37;13.50;99.90
7648;DHT22;3866;48.020;11.720;2023-05-10T11:48:05;12.30;99.90
7648;DHT22;3866;48.020;11.720;2023-05-10T11:50:32;11.70;99.90
7648;DHT22;3866;48.020;11.720;2023-05-10T11:52:59;11.50;99.90
7648;DHT22;3866;48.020;11.720;2023-05-10T11:55:26;11.30;99.90
7648;DHT22;3866;48.020;11.720;2023-05-10T11:57:54;11.20;99.90
7648;DHT22;3866;48.020;11.720;2023-05-10T12:00:21;11.10;99.90
7648;DHT22;3866;48.020;11.720;2023-05-10T12:02:48;11.10;99.90
7648;DHT22;3866;48.020;11.720;2023-05-10T12:05:16;11.20;99.90
7648;DHT22;3866;48.020;11.720;2023-05-10T12:07:43;11.20;99.90
7648;DHT22;3866;48.020;11.720;2023-05-10T12:10:12;11.20;99.90
7648;DHT22;3866;48.020;11.720;2023-05-10T12:12:40;11.20;99.90
7648;DHT22;3866;48.020;11.720;2023-05-10T12:15:17;11.10;99.90
7648;DHT22;3866;48.020;11.720;2023-05-10T12:17:45;11.10;99.90
7648;DHT22;3866;48.020;11.720;2023-05-10T12:20:16;11.10;99.90
7648;DHT22;3866;48.020;11.720;2023-05-10T12:22:45;11.10;99.90
7648;DHT22;3866;48.020;11.720;2023-05-10T12:25:12;11.10;99.90
7648;DHT22;3866;48.020;11.720;2023-05-10T12:27:39;11.10;99.90
7648;DHT22;3866;48.020;11.720;2023-05-10T12:30:07;11.10;99.90
7648;DHT22;3866;48.020;11.720;2023-05-10T12:32:43;11.00;99.90
7648;DHT22;3866;48.020;11.720;2023-05-10T12:35:10;10.90;99.90
7648;DHT22;3866;48.020;11.720;2023-05-10T12:37:37;10.90;99.90
7648;DHT22;3866;48.020;11.720;2023-05-10T12:40:06;10.90;99.90
7648;DHT22;3866;48.020;11.720;2023-05-10T12:42:34;10.90;99.90
7648;DHT22;3866;48.020;11.720;2023-05-10T12:45:02;11.00;99.90
7648;DHT22;3866;48.020;11.720;2023-05-10T12:47:29;11.00;99.90
7648;DHT22;3866;48.020;11.720;2023-05-10T12:49:57;11.10;99.90
7648;DHT22;3866;48.020;11.720;2023-05-10T12:52:24;11.10;99.90
7648;DHT22;3866;48.020;11.720;2023-05-10T12:54:51;11.00;99.90
7648;DHT22;3866;48.020;11.720;2023-05-10T12:57:19;11.10;99.90
7648;DHT22;3866;48.020;11.720;2023-05-10T12:59:46;11.10;99.90
7648;DHT22;3866;48.020;11.720;2023-05-10T13:02:13;11.00;99.90
7648;DHT22;3866;48.020;11.720;2023-05-10T13:04:40;11.10;99.90
7648;DHT22;3866;48.020;11.720;2023-05-10T13:07:09;11.10;99.90
7648;DHT22;3866;48.020;11.720;2023-05-10T13:09:36;11.00;99.90
7648;DHT22;3866;48.020;11.720;2023-05-10T13:12:03;10.90;99.90
7648;DHT22;3866;48.020;11.720;2023-05-10T13:14:30;10.90;99.90
7648;DHT22;3866;48.020;11.720;2023-05-10T13:16:57;11.10;99.90
7648;DHT22;3866;48.020;11.720;2023-05-10T13:19:25;11.00;99.90
7648;DHT22;3866;48.020;11.720;2023-05-10T13:21:52;11.00;99.90
7648;DHT22;3866;48.020;11.720;2023-05-10T13:24:20;11.10;99.90
7648;DHT22;3866;48.020;11.720;2023-05-10T13:26:47;11.10;99.90
7648;DHT22;3866;48.020;11.720;2023-05-10T13:29:15;11.20;99.90
7648;DHT22;3866;48.020;11.720;2023-05-10T13:31:43;11.10;99.90
7648;DHT22;3866;48.020;11.720;2023-05-10T13:34:10;11.20;99.90
7648;DHT22;3866;48.020;11.720;2023-05-10T13:36:37;11.20;99.90
7648;DHT22;3866;48.020;11.720;2023-05-10T13:39:05;11.20;99.90
7648;DHT22;3866;48.020;11.720;2023-05-10T13:41:33;11.30;99.90
7648;DHT22;3866;48.020;11.720;2023-05-10T13:44:00;11.30;99.90
7648;DHT22;3866;48.020;11.720;2023-05-10T13:46:26;11.40;99.90
7648;DHT22;3866;48.020;11.720;2023-05-10T13:48:53;11.30;99.90
7648;DHT22;3866;48.020;11.720;2023-05-10T13:51:20;11.20;99.90
7648;DHT22;3866;48.020;11.720;2023-05-10T13:53:47;11.00;99.90
7648;DHT22;3866;48.020;11.720;2023-05-10T13:56:14;11.00;99.90
7648;DHT22;3866;48.020;11.720;2023-05-10T13:58:42;10.90;99.90
7648;DHT22;3866;48.020;11.720;2023-05-10T14:01:09;11.00;99.90
7648;DHT22;3866;48.020;11.720;2023-05-10T14:03:37;10.90;99.90
7648;DHT22;3866;48.020;11.720;2023-05-10T14:06:04;11.00;99.90
7648;DHT22;3866;48.020;11.720;2023-05-10T14:08:32;11.00;99.90
7648;DHT22;3866;48.020;11.720;2023-05-10T14:10:59;11.00;99.90
7648;DHT22;3866;48.020;11.720;2023-05-10T14:13:26;11.00;99.90
7648;DHT22;3866;48.020;11.720;2023-05-10T14:15:54;10.90;99.90
7648;DHT22;3866;48.020;11.720;2023-05-10T14:18:22;10.90;99.90
7648;DHT22;3866;48.020;11.720;2023-05-10T14:20:49;11.00;99.90
7648;DHT22;3866;48.020;11.720;2023-05-10T14:23:16;11.10;99.90
7648;DHT22;3866;48.020;11.720;2023-05-10T14:25:43;11.10;99.90
7648;DHT22;3866;48.020;11.720;2023-05-10T14:28:10;10.90;99.90
7648;DHT22;3866;48.020;11.720;2023-05-10T14:30:37;11.00;99.90
7648;DHT22;3866;48.020;11.720;2023-05-10T14:33:05;11.10;99.90
7648;DHT22;3866;48.020;11.720;2023-05-10T14:35:33;11.00;99.90
7648;DHT22;3866;48.020;11.720;2023-05-10T14:38:00;11.00;99.90
7648;DHT22;3866;48.020;11.720;2023-05-10T14:40:27;11.00;99.90
7648;DHT22;3866;48.020;11.720;2023-05-10T14:42:54;11.00;99.90
7648;DHT22;3866;48.020;11.720;2023-05-10T14:45:21;10.90;99.90
7648;DHT22;3866;48.020;11.720;2023-05-10T14:47:49;11.00;99.90
7648;DHT22;3866;48.020;11.720;2023-05-10T14:50:17;11.00;99.90
7648;DHT22;3866;48.020;11.720;2023-05-10T14:52:44;11.10;99.90
7648;DHT22;3866;48.020;11.720;2023-05-10T14:55:11;11.10;99.90
7648;DHT22;3866;48.020;11.720;2023-05-10T14:57:38;11.30;99.90
7648;DHT22;3866;48.020;11.720;2023-05-10T15:00:06;11.10;99.90
7648;DHT22;3866;48.020;11.720;2023-05-10T15:02:33;11.10;99.90
7648;DHT22;3866;48.020;11.720;2023-05-10T15:05:00;11.10;99.90
7648;DHT22;3866;48.020;11.720;2023-05-10T15:07:28;11.10;99.90
7648;DHT22;3866;48.020;11.720;2023-05-10T15:09:56;11.20;99.90
7648;DHT22;3866;48.020;11.720;2023-05-10T15:12:23;11.20;99.90
7648;DHT22;3866;48.020;11.720;2023-05-10T15:14:50;11.20;99.90
7648;DHT22;3866;48.020;11.720;2023-05-10T15:17:17;11.20;99.90
7648;DHT22;3866;48.020;11.720;2023-05-10T15:19:44;11.00;99.90
7648;DHT22;3866;48.020;11.720;2023-05-10T15:22:11;11.10;99.90
7648;DHT22;3866;48.020;11.720;2023-05-10T15:24:39;11.00;99.90
7648;DHT22;3866;48.020;11.720;2023-05-10T15:27:06;11.00;99.90
7648;DHT22;3866;48.020;11.720;2023-05-10T15:29:33;11.00;99.90
7648;DHT22;3866;48.020;11.720;2023-05-10T15:32:01;10.90;99.90
7648;DHT22;3866;48.020;11.720;2023-05-10T15:34:29;10.80;99.90
7648;DHT22;3866;48.020;11.720;2023-05-10T15:36:55;11.00;99.90
7648;DHT22;3866;48.020;11.720;2023-05-10T15:39:22;10.90;99.90
7648;DHT22;3866;48.020;11.720;2023-05-10T15:41:51;10.90;99.90
7648;DHT22;3866;48.020;11.720;2023-05-10T15:44:17;10.70;99.90
7648;DHT22;3866;48.020;11.720;2023-05-10T15:46:44;10.60;99.90
7648;DHT22;3866;48.020;11.720;2023-05-10T15:49:11;10.60;99.90
7648;DHT22;3866;48.020;11.720;2023-05-10T15:51:39;10.60;99.90
7648;DHT22;3866;48.020;11.720;2023-05-10T15:54:06;10.60;99.90
7648;DHT22;3866;48.020;11.720;2023-05-10T15:56:36;10.60;99.90